sensor_id;sensor_type;location;lat;lon;timestamp;P1;durP1;ratioP1;P2;durP2;ratioP2
25649;SDS011;13505;45.196;5.696;2022-08-19T04:00:44;5.60;;;3.25;;
25649;SDS011;13505;45.196;5.696;2022-08-19T04:05:34;3.50;;;3.20;;
25649;SDS011;13505;45.196;5.696;2022-08-19T04:10:25;3.90;;;3.20;;
25649;SDS011;13505;45.196;5.696;2022-08-19T04:15:15;3.40;;;3.10;;
25649;SDS011;13505;45.196;5.696;2022-08-19T04:20:06;5.93;;;2.95;;
25649;SDS011;13505;45.196;5.696;2022-08-19T04:24:56;3.47;;;2.95;;
25649;SDS011;13505;45.196;5.696;2022-08-19T04:29:47;3.20;;;2.90;;
25649;SDS011;13505;45.196;5.696;2022-08-19T04:34:38;2.97;;;2.78;;
25649;SDS011;13505;45.196;5.696;2022-08-19T04:39:29;2.92;;;2.60;;
25649;SDS011;13505;45.196;5.696;2022-08-19T04:44:39;3.03;;;2.70;;
25649;SDS011;13505;45.196;5.696;2022-08-19T04:49:29;2.90;;;2.70;;
25649;SDS011;13505;45.196;5.696;2022-08-19T04:54:20;7.03;;;2.97;;
25649;SDS011;13505;45.196;5.696;2022-08-19T04:59:13;3.80;;;3.05;;
25649;SDS011;13505;45.196;5.696;2022-08-19T05:04:05;4.00;;;3.22;;
25649;SDS011;13505;45.196;5.696;2022-08-19T05:08:56;4.63;;;3.40;;
25649;SDS011;13505;45.196;5.696;2022-08-19T05:13:47;4.53;;;3.70;;
25649;SDS011;13505;45.196;5.696;2022-08-19T05:18:41;4.88;;;3.85;;
25649;SDS011;13505;45.196;5.696;2022-08-19T05:23:50;4.95;;;4.40;;
25649;SDS011;13505;45.196;5.696;2022-08-19T05:28:40;5.20;;;4.30;;
25649;SDS011;13505;45.196;5.696;2022-08-19T05:33:31;5.85;;;4.47;;
25649;SDS011;13505;45.196;5.696;2022-08-19T05:38:21;4.90;;;4.45;;
25649;SDS011;13505;45.196;5.696;2022-08-19T05:43:12;4.30;;;3.88;;
25649;SDS011;13505;45.196;5.696;2022-08-19T05:48:05;4.10;;;3.70;;
25649;SDS011;13505;45.196;5.696;2022-08-19T05:52:56;4.83;;;3.67;;
25649;SDS011;13505;45.196;5.696;2022-08-19T05:57:46;4.97;;;3.80;;
25649;SDS011;13505;45.196;5.696;2022-08-19T06:02:36;4.50;;;3.70;;
25649;SDS011;13505;45.196;5.696;2022-08-19T06:07:28;5.82;;;3.63;;
25649;SDS011;13505;45.196;5.696;2022-08-19T06:12:18;5.57;;;3.60;;
25649;SDS011;13505;45.196;5.696;2022-08-19T06:17:09;5.97;;;4.20;;
25649;SDS011;13505;45.196;5.696;2022-08-19T06:21:59;4.37;;;3.50;;
25649;SDS011;13505;45.196;5.696;2022-08-19T06:26:51;5.82;;;3.40;;
25649;SDS011;13505;45.196;5.696;2022-08-19T06:31:44;6.35;;;3.40;;
25649;SDS011;13505;45.196;5.696;2022-08-19T06:36:38;4.45;;;3.38;;
25649;SDS011;13505;45.196;5.696;2022-08-19T06:41:34;3.92;;;3.38;;
25649;SDS011;13505;45.196;5.696;2022-08-19T06:46:26;3.85;;;3.53;;
25649;SDS011;13505;45.196;5.696;2022-08-19T06:51:17;4.38;;;3.58;;
25649;SDS011;13505;45.196;5.696;2022-08-19T06:56:10;3.67;;;3.38;;
25649;SDS011;13505;45.196;5.696;2022-08-19T07:01:03;5.87;;;3.43;;
25649;SDS011;13505;45.196;5.696;2022-08-19T07:05:54;3.95;;;3.58;;
25649;SDS011;13505;45.196;5.696;2022-08-19T07:10:45;4.82;;;3.55;;
25649;SDS011;13505;45.196;5.696;2022-08-19T07:15:36;4.10;;;3.63;;
25649;SDS011;13505;45.196;5.696;2022-08-19T07:20:27;4.00;;;3.60;;
25649;SDS011;13505;45.196;5.696;2022-08-19T07:25:17;3.77;;;3.40;;
25649;SDS011;13505;45.196;5.696;2022-08-19T07:30:08;3.63;;;3.33;;
25649;SDS011;13505;45.196;5.696;2022-08-19T07:35:03;4.20;;;3.60;;
25649;SDS011;13505;45.196;5.696;2022-08-19T07:39:56;3.95;;;3.55;;
25649;SDS011;13505;45.196;5.696;2022-08-19T07:44:46;5.07;;;3.97;;
25649;SDS011;13505;45.196;5.696;2022-08-19T07:49:37;4.05;;;3.65;;
25649;SDS011;13505;45.196;5.696;2022-08-19T07:54:28;4.00;;;3.58;;
25649;SDS011;13505;45.196;5.696;2022-08-19T07:59:21;6.18;;;3.75;;
25649;SDS011;13505;45.196;5.696;2022-08-19T08:04:11;4.30;;;3.60;;
25649;SDS011;13505;45.196;5.696;2022-08-19T08:09:26;7.93;;;4.10;;
25649;SDS011;13505;45.196;5.696;2022-08-19T08:14:30;3.55;;;3.25;;
25649;SDS011;13505;45.196;5.696;2022-08-19T08:19:23;4.20;;;3.10;;
25649;SDS011;13505;45.196;5.696;2022-08-19T08:24:15;4.22;;;3.75;;
25649;SDS011;13505;45.196;5.696;2022-08-19T08:29:06;4.60;;;3.33;;
25649;SDS011;13505;45.196;5.696;2022-08-19T08:34:02;4.20;;;3.40;;
25649;SDS011;13505;45.196;5.696;2022-08-19T08:38:52;6.40;;;3.50;;
25649;SDS011;13505;45.196;5.696;2022-08-19T08:43:44;7.28;;;3.55;;
25649;SDS011;13505;45.196;5.696;2022-08-19T08:48:59;4.05;;;3.40;;
25649;SDS011;13505;45.196;5.696;2022-08-19T08:53:55;3.87;;;3.47;;
25649;SDS011;13505;45.196;5.696;2022-08-19T09:03:53;3.92;;;3.55;;
25649;SDS011;13505;45.196;5.696;2022-08-19T09:09:03;4.50;;;4.03;;
25649;SDS011;13505;45.196;5.696;2022-08-19T09:14:18;4.15;;;3.63;;
25649;SDS011;13505;45.196;5.696;2022-08-19T09:19:10;4.70;;;3.80;;
25649;SDS011;13505;45.196;5.696;2022-08-19T09:24:01;4.35;;;3.47;;
25649;SDS011;13505;45.196;5.696;2022-08-19T09:28:52;6.07;;;3.75;;
25649;SDS011;13505;45.196;5.696;2022-08-19T09:33:44;4.18;;;3.55;;
25649;SDS011;13505;45.196;5.696;2022-08-19T09:38:35;4.95;;;3.78;;
25649;SDS011;13505;45.196;5.696;2022-08-19T09:43:26;4.18;;;3.78;;
25649;SDS011;13505;45.196;5.696;2022-08-19T09:48:18;4.15;;;3.75;;
25649;SDS011;13505;45.196;5.696;2022-08-19T09:53:08;4.32;;;3.70;;
25649;SDS011;13505;45.196;5.696;2022-08-19T09:58:00;4.17;;;3.27;;
25649;SDS011;13505;45.196;5.696;2022-08-19T10:02:52;4.55;;;3.50;;
25649;SDS011;13505;45.196;5.696;2022-08-19T10:07:42;4.80;;;3.70;;
25649;SDS011;13505;45.196;5.696;2022-08-19T10:12:33;4.00;;;3.60;;
25649;SDS011;13505;45.196;5.696;2022-08-19T10:17:23;5.72;;;3.92;;
25649;SDS011;13505;45.196;5.696;2022-08-19T10:22:15;4.10;;;3.70;;
25649;SDS011;13505;45.196;5.696;2022-08-19T10:27:06;6.97;;;3.60;;
25649;SDS011;13505;45.196;5.696;2022-08-19T10:31:57;5.32;;;4.20;;
25649;SDS011;13505;45.196;5.696;2022-08-19T10:36:48;5.97;;;3.92;;
25649;SDS011;13505;45.196;5.696;2022-08-19T10:41:39;4.93;;;4.15;;
25649;SDS011;13505;45.196;5.696;2022-08-19T10:46:31;6.72;;;4.50;;
25649;SDS011;13505;45.196;5.696;2022-08-19T10:51:23;7.13;;;4.97;;
25649;SDS011;13505;45.196;5.696;2022-08-19T10:56:32;5.67;;;4.90;;
25649;SDS011;13505;45.196;5.696;2022-08-19T11:01:42;5.77;;;4.93;;
25649;SDS011;13505;45.196;5.696;2022-08-19T11:06:34;5.20;;;4.70;;
25649;SDS011;13505;45.196;5.696;2022-08-19T11:11:24;5.40;;;4.88;;
25649;SDS011;13505;45.196;5.696;2022-08-19T11:16:18;6.57;;;5.45;;
25649;SDS011;13505;45.196;5.696;2022-08-19T11:21:15;5.93;;;5.05;;
25649;SDS011;13505;45.196;5.696;2022-08-19T11:26:09;6.05;;;4.70;;
25649;SDS011;13505;45.196;5.696;2022-08-19T11:30:59;6.75;;;5.30;;
25649;SDS011;13505;45.196;5.696;2022-08-19T11:35:49;5.88;;;5.22;;
25649;SDS011;13505;45.196;5.696;2022-08-19T11:40:40;6.10;;;5.50;;
25649;SDS011;13505;45.196;5.696;2022-08-19T11:45:32;7.00;;;6.13;;
25649;SDS011;13505;45.196;5.696;2022-08-19T11:50:22;6.43;;;5.77;;
25649;SDS011;13505;45.196;5.696;2022-08-19T11:55:13;6.85;;;6.15;;
25649;SDS011;13505;45.196;5.696;2022-08-19T12:00:04;5.57;;;4.97;;
25649;SDS011;13505;45.196;5.696;2022-08-19T12:04:56;7.03;;;5.43;;
25649;SDS011;13505;45.196;5.696;2022-08-19T12:09:47;7.45;;;5.13;;
25649;SDS011;13505;45.196;5.696;2022-08-19T12:14:37;6.70;;;5.70;;
25649;SDS011;13505;45.196;5.696;2022-08-19T12:19:28;6.38;;;5.78;;
25649;SDS011;13505;45.196;5.696;2022-08-19T12:24:19;6.07;;;5.47;;
25649;SDS011;13505;45.196;5.696;2022-08-19T12:29:12;6.00;;;5.40;;
25649;SDS011;13505;45.196;5.696;2022-08-19T12:34:03;7.35;;;6.20;;
25649;SDS011;13505;45.196;5.696;2022-08-19T12:38:53;8.60;;;5.97;;
25649;SDS011;13505;45.196;5.696;2022-08-19T12:43:44;6.65;;;5.95;;
25649;SDS011;13505;45.196;5.696;2022-08-19T12:48:35;6.38;;;5.53;;
25649;SDS011;13505;45.196;5.696;2022-08-19T12:53:25;6.20;;;5.55;;
25649;SDS011;13505;45.196;5.696;2022-08-19T12:58:16;6.95;;;6.10;;
25649;SDS011;13505;45.196;5.696;2022-08-19T13:03:07;11.27;;;7.35;;
25649;SDS011;13505;45.196;5.696;2022-08-19T13:07:58;10.07;;;8.10;;
25649;SDS011;13505;45.196;5.696;2022-08-19T13:12:50;11.32;;;9.70;;
25649;SDS011;13505;45.196;5.696;2022-08-19T13:17:41;10.77;;;9.65;;
25649;SDS011;13505;45.196;5.696;2022-08-19T13:22:32;16.23;;;9.85;;
25649;SDS011;13505;45.196;5.696;2022-08-19T13:27:22;13.97;;;9.97;;
25649;SDS011;13505;45.196;5.696;2022-08-19T13:32:12;15.53;;;10.37;;
25649;SDS011;13505;45.196;5.696;2022-08-19T13:37:21;13.57;;;10.90;;
25649;SDS011;13505;45.196;5.696;2022-08-19T13:42:30;12.68;;;10.60;;
25649;SDS011;13505;45.196;5.696;2022-08-19T13:47:22;13.50;;;11.55;;
25649;SDS011;13505;45.196;5.696;2022-08-19T13:52:12;13.10;;;10.90;;
25649;SDS011;13505;45.196;5.696;2022-08-19T13:57:02;14.27;;;11.07;;
25649;SDS011;13505;45.196;5.696;2022-08-19T14:01:57;17.58;;;12.32;;
25649;SDS011;13505;45.196;5.696;2022-08-19T14:06:48;21.10;;;12.77;;
25649;SDS011;13505;45.196;5.696;2022-08-19T14:11:38;20.90;;;15.03;;
25649;SDS011;13505;45.196;5.696;2022-08-19T14:16:28;17.45;;;13.15;;
25649;SDS011;13505;45.196;5.696;2022-08-19T14:21:20;17.77;;;12.82;;
25649;SDS011;13505;45.196;5.696;2022-08-19T14:26:14;20.60;;;14.80;;
25649;SDS011;13505;45.196;5.696;2022-08-19T14:31:06;20.23;;;13.65;;
25649;SDS011;13505;45.196;5.696;2022-08-19T14:35:58;19.58;;;13.10;;
25649;SDS011;13505;45.196;5.696;2022-08-19T14:40:49;20.17;;;13.95;;
25649;SDS011;13505;45.196;5.696;2022-08-19T14:45:41;15.82;;;12.02;;
25649;SDS011;13505;45.196;5.696;2022-08-19T14:50:32;15.27;;;11.60;;
25649;SDS011;13505;45.196;5.696;2022-08-19T14:55:23;15.18;;;10.93;;
25649;SDS011;13505;45.196;5.696;2022-08-19T15:00:14;13.35;;;10.98;;
25649;SDS011;13505;45.196;5.696;2022-08-19T15:05:05;14.25;;;11.05;;
25649;SDS011;13505;45.196;5.696;2022-08-19T15:09:56;16.25;;;11.15;;
25649;SDS011;13505;45.196;5.696;2022-08-19T15:14:47;15.15;;;11.07;;
25649;SDS011;13505;45.196;5.696;2022-08-19T15:19:40;13.10;;;11.13;;
25649;SDS011;13505;45.196;5.696;2022-08-19T15:24:30;14.53;;;11.33;;
25649;SDS011;13505;45.196;5.696;2022-08-19T15:29:22;15.43;;;12.48;;
25649;SDS011;13505;45.196;5.696;2022-08-19T15:34:14;15.20;;;11.23;;
25649;SDS011;13505;45.196;5.696;2022-08-19T15:39:04;15.60;;;11.10;;
25649;SDS011;13505;45.196;5.696;2022-08-19T15:43:58;13.98;;;12.02;;
25649;SDS011;13505;45.196;5.696;2022-08-19T15:48:52;15.15;;;11.20;;
25649;SDS011;13505;45.196;5.696;2022-08-19T15:53:43;13.02;;;11.00;;
25649;SDS011;13505;45.196;5.696;2022-08-19T15:58:34;12.40;;;10.68;;
25649;SDS011;13505;45.196;5.696;2022-08-19T16:03:43;15.63;;;9.77;;
25649;SDS011;13505;45.196;5.696;2022-08-19T16:08:53;14.70;;;9.27;;
25649;SDS011;13505;45.196;5.696;2022-08-19T16:13:45;14.20;;;9.68;;
25649;SDS011;13505;45.196;5.696;2022-08-19T16:18:40;11.38;;;9.95;;
25649;SDS011;13505;45.196;5.696;2022-08-19T16:23:31;11.98;;;9.82;;
25649;SDS011;13505;45.196;5.696;2022-08-19T16:28:21;11.85;;;9.88;;
25649;SDS011;13505;45.196;5.696;2022-08-19T16:33:12;10.43;;;9.25;;
25649;SDS011;13505;45.196;5.696;2022-08-19T16:38:02;10.23;;;9.20;;
25649;SDS011;13505;45.196;5.696;2022-08-19T16:42:53;11.48;;;8.60;;
25649;SDS011;13505;45.196;5.696;2022-08-19T16:47:44;10.02;;;8.32;;
25649;SDS011;13505;45.196;5.696;2022-08-19T16:52:34;9.40;;;8.23;;
25649;SDS011;13505;45.196;5.696;2022-08-19T16:57:25;10.25;;;8.73;;
25649;SDS011;13505;45.196;5.696;2022-08-19T17:02:16;9.87;;;8.87;;
25649;SDS011;13505;45.196;5.696;2022-08-19T17:07:08;11.88;;;9.55;;
25649;SDS011;13505;45.196;5.696;2022-08-19T17:11:59;14.05;;;9.85;;
25649;SDS011;13505;45.196;5.696;2022-08-19T17:16:49;10.77;;;9.33;;
25649;SDS011;13505;45.196;5.696;2022-08-19T17:21:40;11.45;;;9.90;;
25649;SDS011;13505;45.196;5.696;2022-08-19T17:26:31;13.07;;;9.98;;
25649;SDS011;13505;45.196;5.696;2022-08-19T17:31:22;10.98;;;9.35;;
25649;SDS011;13505;45.196;5.696;2022-08-19T17:36:23;11.68;;;10.32;;
25649;SDS011;13505;45.196;5.696;2022-08-19T17:41:17;13.63;;;10.63;;
25649;SDS011;13505;45.196;5.696;2022-08-19T17:46:07;10.27;;;9.10;;
25649;SDS011;13505;45.196;5.696;2022-08-19T17:50:58;13.05;;;10.05;;
25649;SDS011;13505;45.196;5.696;2022-08-19T17:55:49;12.60;;;10.25;;
25649;SDS011;13505;45.196;5.696;2022-08-19T18:00:39;13.37;;;9.50;;
25649;SDS011;13505;45.196;5.696;2022-08-19T18:05:34;13.60;;;9.10;;
25649;SDS011;13505;45.196;5.696;2022-08-19T18:10:30;10.55;;;9.45;;
25649;SDS011;13505;45.196;5.696;2022-08-19T18:15:21;10.40;;;9.32;;
25649;SDS011;13505;45.196;5.696;2022-08-19T18:20:13;10.63;;;8.98;;
25649;SDS011;13505;45.196;5.696;2022-08-19T18:25:07;11.25;;;8.95;;
25649;SDS011;13505;45.196;5.696;2022-08-19T18:30:04;11.25;;;9.50;;
25649;SDS011;13505;45.196;5.696;2022-08-19T18:34:56;10.40;;;9.30;;
25649;SDS011;13505;45.196;5.696;2022-08-19T18:39:46;11.05;;;9.45;;
25649;SDS011;13505;45.196;5.696;2022-08-19T18:44:55;10.30;;;9.25;;
25649;SDS011;13505;45.196;5.696;2022-08-19T18:50:04;9.83;;;8.80;;
25649;SDS011;13505;45.196;5.696;2022-08-19T18:54:59;12.38;;;9.18;;
25649;SDS011;13505;45.196;5.696;2022-08-19T18:59:49;9.73;;;8.73;;
25649;SDS011;13505;45.196;5.696;2022-08-19T19:04:40;13.23;;;8.70;;
25649;SDS011;13505;45.196;5.696;2022-08-19T19:09:31;9.65;;;8.68;;
25649;SDS011;13505;45.196;5.696;2022-08-19T19:14:22;10.30;;;7.87;;
25649;SDS011;13505;45.196;5.696;2022-08-19T19:24:11;8.75;;;7.65;;
25649;SDS011;13505;45.196;5.696;2022-08-19T19:29:09;12.27;;;7.95;;
25649;SDS011;13505;45.196;5.696;2022-08-19T19:34:00;10.23;;;8.05;;
25649;SDS011;13505;45.196;5.696;2022-08-19T19:38:51;13.95;;;7.97;;
25649;SDS011;13505;45.196;5.696;2022-08-19T19:43:42;9.85;;;8.55;;
25649;SDS011;13505;45.196;5.696;2022-08-19T19:48:33;13.32;;;7.82;;
25649;SDS011;13505;45.196;5.696;2022-08-19T19:53:24;10.10;;;7.55;;
25649;SDS011;13505;45.196;5.696;2022-08-19T19:58:16;9.43;;;7.95;;
25649;SDS011;13505;45.196;5.696;2022-08-19T20:03:07;10.70;;;8.38;;
25649;SDS011;13505;45.196;5.696;2022-08-19T20:07:58;9.48;;;7.60;;
25649;SDS011;13505;45.196;5.696;2022-08-19T20:13:06;8.57;;;7.68;;
25649;SDS011;13505;45.196;5.696;2022-08-19T20:17:58;8.75;;;7.63;;
25649;SDS011;13505;45.196;5.696;2022-08-19T20:22:50;12.77;;;8.10;;
25649;SDS011;13505;45.196;5.696;2022-08-19T20:27:40;9.13;;;7.75;;
25649;SDS011;13505;45.196;5.696;2022-08-19T20:32:31;10.55;;;8.10;;
25649;SDS011;13505;45.196;5.696;2022-08-19T20:37:22;12.95;;;8.52;;
25649;SDS011;13505;45.196;5.696;2022-08-19T20:42:13;27.58;;;9.68;;
25649;SDS011;13505;45.196;5.696;2022-08-19T20:47:04;12.27;;;8.23;;
25649;SDS011;13505;45.196;5.696;2022-08-19T20:51:54;11.85;;;8.82;;
25649;SDS011;13505;45.196;5.696;2022-08-19T20:56:45;9.63;;;8.63;;
25649;SDS011;13505;45.196;5.696;2022-08-19T21:01:36;9.98;;;8.85;;
25649;SDS011;13505;45.196;5.696;2022-08-19T21:06:26;10.60;;;9.38;;
25649;SDS011;13505;45.196;5.696;2022-08-19T21:11:16;10.07;;;8.80;;
25649;SDS011;13505;45.196;5.696;2022-08-19T21:16:07;11.13;;;8.88;;
25649;SDS011;13505;45.196;5.696;2022-08-19T21:20:57;9.13;;;8.02;;
25649;SDS011;13505;45.196;5.696;2022-08-19T21:25:50;10.40;;;8.48;;
25649;SDS011;13505;45.196;5.696;2022-08-19T21:30:41;10.40;;;8.20;;
25649;SDS011;13505;45.196;5.696;2022-08-19T21:35:32;10.83;;;9.17;;
25649;SDS011;13505;45.196;5.696;2022-08-19T21:40:23;11.20;;;8.45;;
25649;SDS011;13505;45.196;5.696;2022-08-19T21:45:14;10.82;;;9.07;;
25649;SDS011;13505;45.196;5.696;2022-08-19T21:50:06;9.93;;;8.77;;
25649;SDS011;13505;45.196;5.696;2022-08-19T21:54:57;11.75;;;9.98;;
25649;SDS011;13505;45.196;5.696;2022-08-19T21:59:48;13.40;;;9.27;;
